Welcome to Northern Hawkes Bay. New Zealand.
PWS Header
      nz Flag



Hit Counter


W3C Valid W3C Valid logo


    Wairoa

Select any of the Stations below to visit their websites.










Historic Data from Weather Underground
Select the location of interest below. Wairoa is the default. Please have patience, this Data is slow to load in.
Northern Hawkes Bay Historical Data
Daily Summary for February 22, 2017 Units:  Metric    English   Both
« Previous Day
Next Day »
Daily Weekly Monthly Yearly Custom
  High: Low: Average:
Temperature: 27.6 °C 11.0 °C 18.7 °C
Dew Point: 15.9 °C 10.7 °C 13 °C
Humidity: 98% 42% 73%
Wind Speed: 12.2km/h 0.0km/h 3.8km/h
Wind Gust: 18.3km/h - -
Wind- - SSW
Pressure: 1022.2 hPa 1016.1 hPa -
Precipitation: 0.0 mm    
Historical Graphs
 
 
Tabular Data for February 22, 2017
Time Temperature Dew Point Pressure Wind Wind Speed Wind Gust Humidity Rainfall Rate (Hourly) solar
00:00 13.7 °C 12.4 °C 1022.2 hPa Calm     92% 0.0 mm 0 W/m2
00:05 13.7 °C 12.4 °C 1022.2 hPa Calm     92% 0.0 mm 0 W/m2
00:10 13.6 °C 12.5 °C 1022.2 hPa Calm     93% 0.0 mm 0 W/m2
00:15 13.5 °C 12.4 °C 1022.2 hPa Calm     93% 0.0 mm 0 W/m2
00:20 13.4 °C 12.3 °C 1022.2 hPa Calm     93% 0.0 mm 0 W/m2
00:25 13.4 °C 12.3 °C 1021.9 hPa Calm     93% 0.0 mm 0 W/m2
00:30 13.4 °C 12.4 °C 1021.9 hPa Calm     94% 0.0 mm 0 W/m2
00:35 13.5 °C 12.6 °C 1022.2 hPa Calm     94% 0.0 mm 0 W/m2
00:41 13.5 °C 12.7 °C 1021.9 hPa Calm     95% 0.0 mm 0 W/m2
00:46 13.5 °C 12.7 °C 1021.6 hPa Calm     95% 0.0 mm 0 W/m2
00:51 13.5 °C 12.7 °C 1021.6 hPa Calm     95% 0.0 mm 0 W/m2
00:56 13.4 °C 12.6 °C 1021.9 hPa Calm     95% 0.0 mm 0 W/m2
01:01 13.4 °C 12.6 °C 1021.6 hPa NNW 1.1 km/h 3.5 km/h 95% 0.0 mm 0 W/m2
01:06 13.3 °C 12.5 °C 1021.6 hPa Calm   3.5 km/h 95% 0.0 mm 0 W/m2
01:11 13.2 °C 12.4 °C 1021.2 hPa Calm   3.5 km/h 95% 0.0 mm 0 W/m2
01:16 13.1 °C 12.3 °C 1021.6 hPa Calm     95% 0.0 mm 0 W/m2
01:21 13.0 °C 12.2 °C 1021.2 hPa NNW 2.6 km/h 3.5 km/h 95% 0.0 mm 0 W/m2
01:26 13.0 °C 12.2 °C 1021.6 hPa NNW 2.6 km/h 5.0 km/h 95% 0.0 mm 0 W/m2
01:31 13.0 °C 12.2 °C 1021.2 hPa NW 2.6 km/h 5.0 km/h 95% 0.0 mm 0 W/m2
01:36 12.9 °C 12.3 °C 1021.2 hPa NNW 2.6 km/h 5.0 km/h 96% 0.0 mm 0 W/m2
01:41 12.9 °C 12.3 °C 1021.2 hPa North 2.6 km/h 5.0 km/h 96% 0.0 mm 0 W/m2
01:46 12.8 °C 12.2 °C 1021.2 hPa Calm   5.0 km/h 96% 0.0 mm 0 W/m2
01:51 12.7 °C 12.1 °C 1021.2 hPa NNW 2.6 km/h 5.0 km/h 96% 0.0 mm 0 W/m2
01:56 12.7 °C 12.1 °C 1020.9 hPa NNW 2.6 km/h 5.0 km/h 96% 0.0 mm 0 W/m2
02:01 12.7 °C 12.1 °C 1021.2 hPa NNW 3.5 km/h 5.0 km/h 96% 0.0 mm 0 W/m2
02:06 12.6 °C 12.2 °C 1021.2 hPa NNW 2.6 km/h 5.0 km/h 97% 0.0 mm 0 W/m2
02:11 12.6 °C 12.2 °C 1020.9 hPa NNW 1.1 km/h 5.0 km/h 97% 0.0 mm 0 W/m2
02:16 12.6 °C 12.2 °C 1020.9 hPa NNW 2.6 km/h 5.0 km/h 97% 0.0 mm 0 W/m2
02:21 12.6 °C 12.2 °C 1020.9 hPa NNW 3.5 km/h 5.0 km/h 97% 0.0 mm 0 W/m2
02:26 12.5 °C 12.1 °C 1020.9 hPa NNW 5.0 km/h 7.2 km/h 97% 0.0 mm 0 W/m2
02:31 12.5 °C 12.1 °C 1020.9 hPa NW 3.5 km/h 7.2 km/h 97% 0.0 mm 0 W/m2
02:36 12.5 °C 12.1 °C 1020.5 hPa NW 3.5 km/h 7.2 km/h 97% 0.0 mm 0 W/m2
02:41 12.5 °C 12.1 °C 1020.5 hPa NW 5.0 km/h 7.2 km/h 97% 0.0 mm 0 W/m2
02:46 12.4 °C 11.9 °C 1020.9 hPa NW 3.5 km/h 7.2 km/h 97% 0.0 mm 0 W/m2
02:51 12.4 °C 11.9 °C 1020.9 hPa NNW 3.5 km/h 7.2 km/h 97% 0.0 mm 0 W/m2
02:57 12.4 °C 11.9 °C 1020.5 hPa NNW 5.0 km/h 7.2 km/h 97% 0.0 mm 0 W/m2
03:02 12.4 °C 11.9 °C 1020.5 hPa NNW 5.0 km/h 7.2 km/h 97% 0.0 mm 0 W/m2
03:07 12.4 °C 11.9 °C 1020.2 hPa NNW 6.1 km/h 7.2 km/h 97% 0.0 mm 0 W/m2
03:12 12.4 °C 11.9 °C 1020.5 hPa NW 6.1 km/h 8.7 km/h 97% 0.0 mm 0 W/m2
03:17 12.3 °C 11.8 °C 1020.2 hPa NW 5.0 km/h 8.7 km/h 97% 0.0 mm 0 W/m2
03:22 12.3 °C 11.8 °C 1020.2 hPa NW 5.0 km/h 8.7 km/h 97% 0.0 mm 0 W/m2
03:27 12.3 °C 11.8 °C 1020.2 hPa NW 5.0 km/h 8.7 km/h 97% 0.0 mm 0 W/m2
03:32 12.3 °C 11.8 °C 1020.2 hPa NW 3.5 km/h 8.7 km/h 97% 0.0 mm 0 W/m2
03:37 12.2 °C 11.7 °C 1020.2 hPa NW 3.5 km/h 7.2 km/h 97% 0.0 mm 0 W/m2
03:42 12.2 °C 11.7 °C 1020.2 hPa NNW 5.0 km/h 7.2 km/h 97% 0.0 mm 0 W/m2
03:47 12.1 °C 11.7 °C 1020.2 hPa NNW 6.1 km/h 9.7 km/h 97% 0.0 mm 0 W/m2
03:52 12.1 °C 11.7 °C 1019.9 hPa NNW 5.0 km/h 9.7 km/h 97% 0.0 mm 0 W/m2
03:57 12.1 °C 11.7 °C 1019.9 hPa NNW 5.0 km/h 9.7 km/h 97% 0.0 mm 0 W/m2
04:02 12.1 °C 11.7 °C 1019.9 hPa NNW 5.0 km/h 8.7 km/h 97% 0.0 mm 0 W/m2
04:07 12.1 °C 11.7 °C 1019.9 hPa NNW 5.0 km/h 8.7 km/h 97% 0.0 mm 0 W/m2
04:12 12.1 °C 11.7 °C 1019.9 hPa NNW 5.0 km/h 8.7 km/h 97% 0.0 mm 0 W/m2
04:17 12.0 °C 11.6 °C 1019.9 hPa NNW 5.0 km/h 8.7 km/h 97% 0.0 mm 0 W/m2
04:22 12.0 °C 11.6 °C 1019.9 hPa NNW 5.0 km/h 8.7 km/h 97% 0.0 mm 0 W/m2
04:27 11.9 °C 11.6 °C 1019.5 hPa NNW 6.1 km/h 8.7 km/h 98% 0.0 mm 0 W/m2
04:32 11.8 °C 11.5 °C 1019.5 hPa NNW 3.5 km/h 9.7 km/h 98% 0.0 mm 0 W/m2
04:37 11.8 °C 11.5 °C 1019.5 hPa NNW 5.0 km/h 9.7 km/h 98% 0.0 mm 0 W/m2
04:42 11.7 °C 11.4 °C 1019.5 hPa NW 3.5 km/h 8.7 km/h 98% 0.0 mm 0 W/m2
04:47 11.7 °C 11.4 °C 1019.5 hPa NW 2.6 km/h 7.2 km/h 98% 0.0 mm 0 W/m2
04:52 11.6 °C 11.3 °C 1019.5 hPa NW 3.5 km/h 7.2 km/h 98% 0.0 mm 0 W/m2
04:57 11.5 °C 11.2 °C 1019.5 hPa NNW 2.6 km/h 6.1 km/h 98% 0.0 mm 0 W/m2
05:02 11.5 °C 11.2 °C 1019.5 hPa NNW 1.1 km/h 6.1 km/h 98% 0.0 mm 0 W/m2
05:07 11.4 °C 11.1 °C 1019.5 hPa North 2.6 km/h 6.1 km/h 98% 0.0 mm 0 W/m2
05:12 11.3 °C 11.0 °C 1019.5 hPa North 1.1 km/h 5.0 km/h 98% 0.0 mm 0 W/m2
05:17 11.3 °C 11.0 °C 1019.5 hPa NNW 5.0 km/h 6.1 km/h 98% 0.0 mm 0 W/m2
05:22 11.3 °C 11.0 °C 1019.5 hPa NNW 1.1 km/h 6.1 km/h 98% 0.0 mm 0 W/m2
05:27 11.2 °C 10.9 °C 1019.5 hPa NNW 2.6 km/h 6.1 km/h 98% 0.0 mm 0 W/m2
05:32 11.2 °C 10.9 °C 1019.5 hPa NNW 3.5 km/h 5.0 km/h 98% 0.0 mm 0 W/m2
05:37 11.2 °C 10.9 °C 1019.5 hPa North 1.1 km/h 6.1 km/h 98% 0.0 mm 0 W/m2
05:42 11.2 °C 10.9 °C 1019.5 hPa NNW 3.5 km/h 6.1 km/h 98% 0.0 mm 0 W/m2
05:47 11.1 °C 10.8 °C 1019.9 hPa NNW 3.5 km/h 6.1 km/h 98% 0.0 mm 0 W/m2
05:52 11.0 °C 10.7 °C 1019.5 hPa North 1.1 km/h 6.1 km/h 98% 0.0 mm 0 W/m2
05:57 11.1 °C 10.8 °C 1019.5 hPa North 3.5 km/h 6.1 km/h 98% 0.0 mm 0 W/m2
06:02 11.1 °C 10.8 °C 1019.5 hPa NNW 5.0 km/h 7.2 km/h 98% 0.0 mm 0 W/m2
06:07 11.1 °C 10.8 °C 1019.5 hPa NNW 6.1 km/h 8.7 km/h 98% 0.0 mm 0 W/m2
06:12 11.0 °C 10.7 °C 1019.5 hPa NNW 3.5 km/h 8.7 km/h 98% 0.0 mm 0 W/m2
06:15 11.0 °C 10.7 °C 1019.5 hPa North 5.0 km/h 8.7 km/h 98% 0.0 mm 0 W/m2
06:20 11.0 °C 10.7 °C 1019.5 hPa North 2.6 km/h 6.1 km/h 98% 0.0 mm 0 W/m2
06:25 11.0 °C 10.7 °C 1019.5 hPa NNW 3.5 km/h 6.1 km/h 98% 0.0 mm 0 W/m2
06:30 11.0 °C 10.7 °C 1019.5 hPa NNW 3.5 km/h 6.1 km/h 98% 0.0 mm 0 W/m2
06:35 11.0 °C 10.7 °C 1019.5 hPa NNW 3.5 km/h 7.2 km/h 98% 0.0 mm 0 W/m2
06:40 11.0 °C 10.7 °C 1019.5 hPa NNW 2.6 km/h 7.2 km/h 98% 0.0 mm 1 W/m2
06:45 11.0 °C 10.7 °C 1019.5 hPa NNW 2.6 km/h 5.0 km/h 98% 0.0 mm 3 W/m2
06:50 11.0 °C 10.7 °C 1019.5 hPa NW 5.0 km/h 6.1 km/h 98% 0.0 mm 5 W/m2
06:55 11.0 °C 10.7 °C 1019.5 hPa NW 3.5 km/h 6.1 km/h 98% 0.0 mm 9 W/m2
07:00 11.0 °C 10.7 °C 1019.5 hPa NNW 2.6 km/h 6.1 km/h 98% 0.0 mm 12 W/m2
07:05 11.0 °C 10.7 °C 1019.5 hPa NNW 6.1 km/h 9.7 km/h 98% 0.0 mm 17 W/m2
07:10 11.1 °C 10.8 °C 1019.5 hPa NNW 3.5 km/h 9.7 km/h 98% 0.0 mm 47 W/m2
07:15 11.4 °C 11.1 °C 1019.5 hPa NNW 5.0 km/h 11.1 km/h 98% 0.0 mm 64 W/m2
07:20 11.7 °C 11.4 °C 1019.5 hPa NNW 6.1 km/h 12.2 km/h 98% 0.0 mm 76 W/m2
07:25 11.9 °C 11.6 °C 1019.5 hPa NNW 8.7 km/h 15.8 km/h 98% 0.0 mm 85 W/m2
07:30 12.1 °C 11.7 °C 1019.5 hPa NNW 7.2 km/h 15.8 km/h 97% 0.0 mm 96 W/m2
07:35 12.4 °C 11.9 °C 1019.5 hPa NNW 6.1 km/h 12.2 km/h 97% 0.0 mm 109 W/m2
07:40 12.7 °C 12.2 °C 1019.5 hPa NNW 3.5 km/h 11.1 km/h 97% 0.0 mm 119 W/m2
07:45 13.1 °C 12.3 °C 1019.5 hPa NNW 1.1 km/h 9.7 km/h 95% 0.0 mm 132 W/m2
07:50 13.7 °C 12.8 °C 1019.5 hPa NNW 2.6 km/h 8.7 km/h 94% 0.0 mm 141 W/m2
07:56 14.5 °C 12.9 °C 1019.5 hPa North 3.5 km/h 7.2 km/h 90% 0.0 mm 157 W/m2
08:01 15.2 °C 13.1 °C 1019.5 hPa NNE 1.1 km/h 7.2 km/h 87% 0.0 mm 166 W/m2
08:06 16.0 °C 13.3 °C 1019.9 hPa Calm   6.1 km/h 84% 0.0 mm 176 W/m2
08:11 16.4 °C 12.8 °C 1019.9 hPa NE 1.1 km/h 3.5 km/h 79% 0.0 mm 165 W/m2
08:16 16.3 °C 12.1 °C 1019.5 hPa Calm   5.0 km/h 76% 0.0 mm 191 W/m2
08:21 16.5 °C 12.3 °C 1019.9 hPa NNW 3.5 km/h 6.1 km/h 76% 0.0 mm 202 W/m2
08:26 16.5 °C 12.3 °C 1019.9 hPa NNW 3.5 km/h 8.7 km/h 76% 0.0 mm 221 W/m2
08:31 16.4 °C 12.6 °C 1019.9 hPa NW 5.0 km/h 9.7 km/h 78% 0.0 mm 232 W/m2
08:36 16.3 °C 12.4 °C 1020.2 hPa NNW 3.5 km/h 9.7 km/h 78% 0.0 mm 235 W/m2
08:41 16.7 °C 12.8 °C 1020.2 hPa NNW 5.0 km/h 8.7 km/h 78% 0.0 mm 241 W/m2
08:42 16.7 °C 12.7 °C 1019.9 hPa NNW 6.1 km/h 8.7 km/h 77% 0.0 mm 241 W/m2
08:47 17.1 °C 12.7 °C 1020.2 hPa NNW 5.0 km/h 8.7 km/h 75% 0.0 mm 247 W/m2
08:48 17.2 °C 12.7 °C 1020.2 hPa NNW 5.0 km/h 8.7 km/h 75% 0.0 mm 248 W/m2
09:04 17.9 °C 13.0 °C 1020.2 hPa NNW 6.1 km/h 11.1 km/h 73% 0.0 mm 269 W/m2
09:09 18.0 °C 13.1 °C 1020.5 hPa NNW 5.0 km/h 11.1 km/h 73% 0.0 mm 284 W/m2
09:14 18.2 °C 13.1 °C 1020.2 hPa NNW 5.0 km/h 11.1 km/h 72% 0.0 mm 301 W/m2
09:19 18.4 °C 13.1 °C 1020.2 hPa NNW 5.0 km/h 11.1 km/h 71% 0.0 mm 314 W/m2
09:24 18.8 °C 13.4 °C 1019.9 hPa NNW 3.5 km/h 11.1 km/h 71% 0.0 mm 322 W/m2
09:29 19.3 °C 13.1 °C 1020.2 hPa North 6.1 km/h 11.1 km/h 67% 0.0 mm 347 W/m2
09:34 19.8 °C 13.3 °C 1019.9 hPa North 7.2 km/h 11.1 km/h 66% 0.0 mm 368 W/m2
09:39 20.4 °C 13.4 °C 1019.9 hPa NNE 6.1 km/h 12.2 km/h 64% 0.0 mm 384 W/m2
09:45 20.5 °C 13.2 °C 1020.2 hPa NNE 5.0 km/h 12.2 km/h 63% 0.0 mm 402 W/m2
09:50 21.0 °C 12.2 °C 1020.2 hPa NNE 6.1 km/h 12.2 km/h 57% 0.0 mm 416 W/m2
09:55 20.7 °C 12.2 °C 1020.2 hPa NNE 11.1 km/h 15.8 km/h 58% 0.0 mm 429 W/m2
10:00 20.6 °C 11.8 °C 1020.2 hPa NE 8.7 km/h 15.8 km/h 57% 0.0 mm 443 W/m2
10:05 21.0 °C 11.6 °C 1020.2 hPa NE 7.2 km/h 13.4 km/h 55% 0.0 mm 461 W/m2
10:10 21.4 °C 11.7 °C 1020.2 hPa NE 5.0 km/h 11.1 km/h 54% 0.0 mm 477 W/m2
10:15 21.2 °C 11.3 °C 1019.9 hPa NE 6.1 km/h 13.4 km/h 53% 0.0 mm 493 W/m2
10:20 20.8 °C 11.2 °C 1020.2 hPa ENE 7.2 km/h 18.3 km/h 54% 0.0 mm 501 W/m2
10:25 21.2 °C 11.6 °C 1020.2 hPa NE 6.1 km/h 18.3 km/h 54% 0.0 mm 525 W/m2
10:30 21.5 °C 11.6 °C 1020.2 hPa NNE 2.6 km/h 12.2 km/h 53% 0.0 mm 541 W/m2
10:35 22.1 °C 12.1 °C 1019.9 hPa NNE 1.1 km/h 11.1 km/h 53% 0.0 mm 559 W/m2
10:40 22.1 °C 11.2 °C 1019.9 hPa ENE 7.2 km/h 14.8 km/h 50% 0.0 mm 577 W/m2
10:45 21.9 °C 11.9 °C 1019.9 hPa NE 9.7 km/h 15.8 km/h 53% 0.0 mm 469 W/m2
10:50 22.2 °C 11.9 °C 1019.5 hPa NE 6.1 km/h 15.8 km/h 52% 0.0 mm 602 W/m2
10:56 22.5 °C 11.9 °C 1019.9 hPa ENE 3.5 km/h 12.2 km/h 51% 0.0 mm 110 W/m2
11:01 23.0 °C 12.1 °C 1019.9 hPa ENE 5.0 km/h 11.1 km/h 50% 0.0 mm 640 W/m2
11:06 23.4 °C 12.4 °C 1019.9 hPa NE 1.1 km/h 8.7 km/h 50% 0.0 mm 101 W/m2
11:11 23.4 °C 11.8 °C 1019.9 hPa NE 3.5 km/h 13.4 km/h 48% 0.0 mm 101 W/m2
11:16 23.3 °C 12.0 °C 1019.9 hPa NE 6.1 km/h 13.4 km/h 49% 0.0 mm 679 W/m2
11:18 23.2 °C 11.9 °C 1019.5 hPa NE 5.0 km/h 13.4 km/h 49% 0.0 mm 691 W/m2
11:24 23.2 °C 11.6 °C 1019.5 hPa NE 6.1 km/h 13.4 km/h 48% 0.0 mm 708 W/m2
11:29 23.4 °C 12.1 °C 1019.5 hPa NE 6.1 km/h 13.4 km/h 49% 0.0 mm 730 W/m2
11:34 23.1 °C 11.2 °C 1019.5 hPa NNE 8.7 km/h 12.2 km/h 47% 0.0 mm 110 W/m2
11:39 23.1 °C 11.5 °C 1019.5 hPa North 5.0 km/h 13.4 km/h 48% 0.0 mm 763 W/m2
11:44 23.6 °C 11.9 °C 1019.5 hPa North 3.5 km/h 13.4 km/h 48% 0.0 mm 786 W/m2
11:49 23.9 °C 12.2 °C 1019.5 hPa SW 8.7 km/h 11.1 km/h 48% 0.0 mm 814 W/m2
11:54 23.2 °C 13.4 °C 1019.5 hPa South 7.2 km/h 11.1 km/h 54% 0.0 mm 824 W/m2
11:59 22.5 °C 12.7 °C 1019.5 hPa South 11.1 km/h 17.2 km/h 54% 0.0 mm 833 W/m2
12:04 21.9 °C 12.7 °C 1019.5 hPa South 5.0 km/h 17.2 km/h 56% 0.0 mm 847 W/m2
12:09 22.1 °C 12.9 °C 1019.5 hPa South 7.2 km/h 14.8 km/h 56% 0.0 mm 870 W/m2
12:14 22.2 °C 12.7 °C 1019.5 hPa South 7.2 km/h 13.4 km/h 55% 0.0 mm 880 W/m2
12:19 22.1 °C 12.9 °C 1019.2 hPa SSE 5.0 km/h 13.4 km/h 56% 0.0 mm 896 W/m2
12:24 22.0 °C 12.8 °C 1019.2 hPa SE 2.6 km/h 13.4 km/h 56% 0.0 mm 904 W/m2
12:29 22.1 °C 12.9 °C 1018.8 hPa SSE 11.1 km/h 14.8 km/h 56% 0.0 mm 912 W/m2
12:34 22.1 °C 13.4 °C 1018.8 hPa SSE 6.1 km/h 14.8 km/h 58% 0.0 mm 916 W/m2
12:39 22.1 °C 13.7 °C 1018.8 hPa SSE 6.1 km/h 14.8 km/h 59% 0.0 mm 923 W/m2
12:44 22.5 °C 13.8 °C 1018.8 hPa SSE 2.6 km/h 14.8 km/h 58% 0.0 mm 930 W/m2
12:49 22.7 °C 13.2 °C 1018.8 hPa SSE 2.6 km/h 12.2 km/h 55% 0.0 mm 939 W/m2
12:54 22.6 °C 13.4 °C 1018.8 hPa SSE 3.5 km/h 14.8 km/h 56% 0.0 mm 938 W/m2
12:59 22.6 °C 12.6 °C 1018.8 hPa SE 9.7 km/h 14.8 km/h 53% 0.0 mm 943 W/m2
13:04 22.2 °C 13.3 °C 1018.5 hPa SSE 6.1 km/h 18.3 km/h 57% 0.0 mm 941 W/m2
13:09 22.4 °C 12.9 °C 1018.5 hPa SSE 8.7 km/h 18.3 km/h 55% 0.0 mm 944 W/m2
13:14 23.0 °C 13.2 °C 1018.5 hPa SSE 6.1 km/h 14.8 km/h 54% 0.0 mm 947 W/m2
13:19 23.1 °C 13.6 °C 1018.5 hPa SSE 6.1 km/h 13.4 km/h 55% 0.0 mm 947 W/m2
13:24 23.4 °C 13.9 °C 1018.2 hPa SSE 5.0 km/h 13.4 km/h 55% 0.0 mm 946 W/m2
13:29 23.7 °C 13.6 °C 1018.2 hPa SE 7.2 km/h 13.4 km/h 53% 0.0 mm 945 W/m2
13:34 23.5 °C 13.9 °C 1018.2 hPa SE 7.2 km/h 13.4 km/h 55% 0.0 mm 940 W/m2
13:39 23.5 °C 13.9 °C 1018.2 hPa SSE 9.7 km/h 14.8 km/h 55% 0.0 mm 936 W/m2
13:44 23.3 °C 13.8 °C 1018.2 hPa South 6.1 km/h 14.8 km/h 55% 0.0 mm 927 W/m2
13:49 23.5 °C 13.7 °C 1018.2 hPa South 5.0 km/h 15.8 km/h 54% 0.0 mm 924 W/m2
13:54 23.7 °C 14.2 °C 1018.2 hPa SE 8.7 km/h 15.8 km/h 55% 0.0 mm 918 W/m2
13:59 23.5 °C 14.2 °C 1018.2 hPa SSE 7.2 km/h 14.8 km/h 56% 0.0 mm 907 W/m2
14:04 23.7 °C 14.2 °C 1017.8 hPa South 5.0 km/h 13.4 km/h 55% 0.0 mm 900 W/m2
14:09 24.0 °C 13.8 °C 1018.2 hPa SSE 6.1 km/h 13.4 km/h 53% 0.0 mm 893 W/m2
14:14 24.0 °C 13.6 °C 1018.2 hPa SE 2.6 km/h 13.4 km/h 52% 0.0 mm 882 W/m2
14:19 24.1 °C 13.9 °C 1017.8 hPa SE 5.0 km/h 13.4 km/h 53% 0.0 mm 874 W/m2
14:24 24.5 °C 14.0 °C 1017.8 hPa SE 6.1 km/h 12.2 km/h 52% 0.0 mm 860 W/m2
14:29 24.4 °C 14.2 °C 1017.8 hPa SE 5.0 km/h 11.1 km/h 53% 0.0 mm 836 W/m2
14:34 24.3 °C 13.8 °C 1017.8 hPa SE 8.7 km/h 13.4 km/h 52% 0.0 mm 839 W/m2
14:39 24.2 °C 13.4 °C 1017.8 hPa SE 8.7 km/h 13.4 km/h 51% 0.0 mm 818 W/m2
14:44 24.4 °C 13.9 °C 1017.5 hPa SSE 6.1 km/h 12.2 km/h 52% 0.0 mm 493 W/m2
14:49 24.5 °C 13.7 °C 1017.5 hPa South 8.7 km/h 14.8 km/h 51% 0.0 mm 721 W/m2
14:54 24.3 °C 13.6 °C 1017.5 hPa SSE 3.5 km/h 14.8 km/h 51% 0.0 mm 776 W/m2
14:59 24.6 °C 13.8 °C 1017.5 hPa SE 2.6 km/h 14.8 km/h 51% 0.0 mm 768 W/m2
15:04 24.6 °C 13.5 °C 1017.5 hPa SE 12.2 km/h 14.8 km/h 50% 0.0 mm 733 W/m2
15:09 24.4 °C 13.6 °C 1017.2 hPa SE 6.1 km/h 15.8 km/h 51% 0.0 mm 741 W/m2
15:14 24.7 °C 13.6 °C 1017.2 hPa SE 8.7 km/h 15.8 km/h 50% 0.0 mm 624 W/m2
15:19 24.6 °C 13.5 °C 1017.5 hPa SE 6.1 km/h 13.4 km/h 50% 0.0 mm 349 W/m2
15:24 25.2 °C 13.7 °C 1017.2 hPa SE 6.1 km/h 15.8 km/h 49% 0.0 mm 699 W/m2
15:29 25.3 °C 13.8 °C 1017.2 hPa ESE 8.7 km/h 15.8 km/h 49% 0.0 mm 562 W/m2
15:34 25.4 °C 14.6 °C 1017.2 hPa SE 7.2 km/h 15.8 km/h 51% 0.0 mm 674 W/m2
15:39 25.7 °C 14.2 °C 1017.2 hPa SE 6.1 km/h 13.4 km/h 49% 0.0 mm 661 W/m2
15:44 25.4 °C 13.3 °C 1017.2 hPa SE 5.0 km/h 13.4 km/h 47% 0.0 mm 648 W/m2
15:49 25.8 °C 14.0 °C 1016.8 hPa SE 5.0 km/h 12.2 km/h 48% 0.0 mm 560 W/m2
15:54 26.1 °C 13.3 °C 1016.8 hPa SE 6.1 km/h 12.2 km/h 45% 0.0 mm 548 W/m2
15:59 26.1 °C 13.3 °C 1017.2 hPa SE 7.2 km/h 12.2 km/h 45% 0.0 mm 442 W/m2
16:04 26.2 °C 13.3 °C 1017.2 hPa SE 6.1 km/h 12.2 km/h 45% 0.0 mm 351 W/m2
16:09 26.4 °C 13.2 °C 1016.8 hPa SE 6.1 km/h 12.2 km/h 44% 0.0 mm 136 W/m2
16:14 26.2 °C 13.0 °C 1016.8 hPa SE 6.1 km/h 13.4 km/h 44% 0.0 mm 568 W/m2
16:19 26.4 °C 12.8 °C 1016.8 hPa ESE 6.1 km/h 13.4 km/h 43% 0.0 mm 397 W/m2
16:24 26.5 °C 13.3 °C 1016.8 hPa SE 7.2 km/h 12.2 km/h 44% 0.0 mm 526 W/m2
16:29 26.8 °C 13.9 °C 1016.8 hPa SSE 2.6 km/h 12.2 km/h 45% 0.0 mm 365 W/m2
16:34 27.1 °C 13.4 °C 1016.8 hPa ESE 2.6 km/h 9.7 km/h 43% 0.0 mm 520 W/m2
16:39 27.1 °C 13.1 °C 1016.8 hPa East 11.1 km/h 13.4 km/h 42% 0.0 mm 301 W/m2
16:44 26.5 °C 12.9 °C 1016.5 hPa ESE 8.7 km/h 14.8 km/h 43% 0.0 mm 480 W/m2
16:49 26.4 °C 13.2 °C 1016.5 hPa ESE 6.1 km/h 14.8 km/h 44% 0.0 mm 453 W/m2
16:54 26.8 °C 13.6 °C 1016.5 hPa East 6.1 km/h 13.4 km/h 44% 0.0 mm 464 W/m2
16:59 26.8 °C 13.6 °C 1016.5 hPa East 3.5 km/h 13.4 km/h 44% 0.0 mm 454 W/m2
17:04 27.6 °C 13.6 °C 1016.8 hPa SE 6.1 km/h 11.1 km/h 42% 0.0 mm 445 W/m2
17:09 26.8 °C 13.2 °C 1016.5 hPa SE 6.1 km/h 14.8 km/h 43% 0.0 mm 433 W/m2
17:14 26.7 °C 13.4 °C 1016.5 hPa SE 5.0 km/h 14.8 km/h 44% 0.0 mm 375 W/m2
17:19 26.7 °C 13.4 °C 1016.5 hPa SE 5.0 km/h 11.1 km/h 44% 0.0 mm 388 W/m2
17:24 26.8 °C 13.6 °C 1016.5 hPa SE 3.5 km/h 11.1 km/h 44% 0.0 mm 367 W/m2
17:29 26.4 °C 13.9 °C 1016.5 hPa SE 6.1 km/h 14.8 km/h 46% 0.0 mm 344 W/m2
17:39 26.0 °C 14.2 °C 1016.1 hPa SE 5.0 km/h 17.2 km/h 48% 0.0 mm 328 W/m2
17:44 26.2 °C 14.0 °C 1016.1 hPa SE 3.5 km/h 13.4 km/h 47% 0.0 mm 331 W/m2
17:49 26.4 °C 14.2 °C 1016.5 hPa SSE 6.1 km/h 13.4 km/h 47% 0.0 mm 335 W/m2
17:54 26.5 °C 14.3 °C 1016.5 hPa ESE 6.1 km/h 14.8 km/h 47% 0.0 mm 325 W/m2
17:59 26.5 °C 14.6 °C 1016.5 hPa ESE 5.0 km/h 14.8 km/h 48% 0.0 mm 310 W/m2
18:04 26.6 °C 15.1 °C 1016.5 hPa SE 3.5 km/h 12.2 km/h 49% 0.0 mm 304 W/m2
18:09 26.8 °C 14.9 °C 1016.8 hPa SE 6.1 km/h 11.1 km/h 48% 0.0 mm 280 W/m2
18:14 26.3 °C 14.4 °C 1016.5 hPa SE 5.0 km/h 12.2 km/h 48% 0.0 mm 256 W/m2
18:19 26.3 °C 14.8 °C 1016.5 hPa SE 3.5 km/h 12.2 km/h 49% 0.0 mm 236 W/m2
18:24 26.2 °C 14.3 °C 1016.5 hPa SE 3.5 km/h 12.2 km/h 48% 0.0 mm 205 W/m2
18:29 25.3 °C 14.4 °C 1016.5 hPa SE 5.0 km/h 14.8 km/h 51% 0.0 mm 116 W/m2
18:34 24.0 °C 14.1 °C 1016.5 hPa ESE 8.7 km/h 14.8 km/h 54% 0.0 mm 108 W/m2
18:39 23.3 °C 14.1 °C 1016.8 hPa SSE 5.0 km/h 14.8 km/h 56% 0.0 mm 108 W/m2
18:44 22.9 °C 14.2 °C 1016.5 hPa South 1.1 km/h 13.4 km/h 58% 0.0 mm 94 W/m2
18:49 22.6 °C 13.9 °C 1016.8 hPa SE 3.5 km/h 12.2 km/h 58% 0.0 mm 90 W/m2
18:54 22.4 °C 14.0 °C 1016.8 hPa Calm   9.7 km/h 59% 0.0 mm 95 W/m2
18:59 22.4 °C 14.0 °C 1016.8 hPa SE 2.6 km/h 9.7 km/h 59% 0.0 mm 80 W/m2
19:04 22.3 °C 14.2 °C 1016.5 hPa SE 1.1 km/h 11.1 km/h 60% 0.0 mm 66 W/m2
19:09 22.2 °C 14.1 °C 1016.8 hPa ESE 5.0 km/h 11.1 km/h 60% 0.0 mm 60 W/m2
19:14 21.9 °C 14.1 °C 1016.8 hPa ESE 6.1 km/h 11.1 km/h 61% 0.0 mm 59 W/m2
19:19 21.8 °C 13.9 °C 1016.8 hPa SE 1.1 km/h 12.2 km/h 61% 0.0 mm 61 W/m2
19:24 21.8 °C 13.7 °C 1016.8 hPa SE 8.7 km/h 12.2 km/h 60% 0.0 mm 52 W/m2
19:29 21.8 °C 13.4 °C 1016.8 hPa Calm   11.1 km/h 59% 0.0 mm 46 W/m2
19:34 21.8 °C 13.4 °C 1016.8 hPa SE 5.0 km/h 13.4 km/h 59% 0.0 mm 40 W/m2
19:39 21.8 °C 13.7 °C 1016.8 hPa SE 3.5 km/h 13.4 km/h 60% 0.0 mm 30 W/m2
19:44 21.7 °C 13.9 °C 1016.8 hPa Calm   11.1 km/h 61% 0.0 mm 23 W/m2
19:49 21.6 °C 14.0 °C 1016.8 hPa Calm   7.2 km/h 62% 0.0 mm 16 W/m2
19:54 21.4 °C 14.1 °C 1016.8 hPa Calm   7.2 km/h 63% 0.0 mm 11 W/m2
19:59 21.3 °C 14.2 °C 1016.8 hPa Calm   3.5 km/h 64% 0.0 mm 6 W/m2
20:04 21.0 °C 13.9 °C 1016.8 hPa Calm   1.1 km/h 64% 0.0 mm 3 W/m2
20:09 20.7 °C 14.1 °C 1016.8 hPa Calm     66% 0.0 mm 0 W/m2
20:14 20.4 °C 14.1 °C 1016.8 hPa Calm     67% 0.0 mm 0 W/m2
20:19 20.2 °C 14.1 °C 1016.8 hPa Calm     68% 0.0 mm 0 W/m2
20:24 20.0 °C 14.4 °C 1016.8 hPa Calm     70% 0.0 mm 0 W/m2
20:29 19.9 °C 14.7 °C 1016.8 hPa Calm     72% 0.0 mm 0 W/m2
20:34 19.8 °C 15.1 °C 1017.2 hPa Calm   1.1 km/h 74% 0.0 mm 0 W/m2
20:38 19.7 °C 14.9 °C 1016.8 hPa Calm   1.1 km/h 74% 0.0 mm 0 W/m2
20:43 19.5 °C 14.9 °C 1017.2 hPa Calm   1.1 km/h 75% 0.0 mm 0 W/m2
20:48 19.5 °C 14.9 °C 1016.8 hPa Calm     75% 0.0 mm 0 W/m2
20:53 19.5 °C 15.2 °C 1017.2 hPa Calm     76% 0.0 mm 0 W/m2
20:58 19.4 °C 15.3 °C 1017.2 hPa Calm     77% 0.0 mm 0 W/m2
21:03 19.4 °C 15.3 °C 1017.2 hPa Calm     77% 0.0 mm 0 W/m2
21:08 19.4 °C 15.3 °C 1017.2 hPa Calm     77% 0.0 mm 0 W/m2
21:13 19.6 °C 15.4 °C 1017.5 hPa Calm   1.1 km/h 77% 0.0 mm 0 W/m2
21:18 19.7 °C 15.8 °C 1017.2 hPa Calm   1.1 km/h 78% 0.0 mm 0 W/m2
21:23 19.8 °C 15.9 °C 1017.5 hPa Calm   1.1 km/h 78% 0.0 mm 0 W/m2
21:28 19.9 °C 15.9 °C 1017.5 hPa ENE 1.1 km/h 5.0 km/h 78% 0.0 mm 0 W/m2
21:33 19.9 °C 15.9 °C 1017.5 hPa Calm   5.0 km/h 78% 0.0 mm 0 W/m2
21:38 19.9 °C 15.9 °C 1017.5 hPa Calm   5.0 km/h 78% 0.0 mm 0 W/m2
21:43 19.9 °C 15.9 °C 1017.8 hPa Calm   2.6 km/h 78% 0.0 mm 0 W/m2
21:48 19.9 °C 15.9 °C 1017.8 hPa Calm   2.6 km/h 78% 0.0 mm 0 W/m2
21:53 19.9 °C 15.9 °C 1017.8 hPa Calm   1.1 km/h 78% 0.0 mm 0 W/m2
21:58 19.8 °C 15.9 °C 1018.2 hPa NW 2.6 km/h 5.0 km/h 78% 0.0 mm 0 W/m2
22:03 19.7 °C 15.8 °C 1018.2 hPa Calm   5.0 km/h 78% 0.0 mm 0 W/m2
22:08 19.6 °C 15.7 °C 1018.2 hPa NW 1.1 km/h 5.0 km/h 78% 0.0 mm 0 W/m2
22:13 19.4 °C 15.5 °C 1018.2 hPa NW 3.5 km/h 6.1 km/h 78% 0.0 mm 0 W/m2
22:18 19.3 °C 15.4 °C 1018.2 hPa NW 2.6 km/h 6.1 km/h 78% 0.0 mm 0 W/m2
22:23 19.2 °C 15.3 °C 1018.2 hPa NW 1.1 km/h 5.0 km/h 78% 0.0 mm 0 W/m2
22:28 19.1 °C 15.4 °C 1018.2 hPa Calm   3.5 km/h 79% 0.0 mm 0 W/m2
22:33 18.9 °C 15.4 °C 1018.2 hPa Calm   3.5 km/h 80% 0.0 mm 0 W/m2
22:38 18.7 °C 15.4 °C 1017.8 hPa Calm   1.1 km/h 81% 0.0 mm 0 W/m2
22:43 18.6 °C 15.3 °C 1018.2 hPa Calm     81% 0.0 mm 0 W/m2
22:48 18.5 °C 15.2 °C 1018.2 hPa Calm   1.1 km/h 81% 0.0 mm 0 W/m2
22:53 18.4 °C 15.3 °C 1018.2 hPa Calm   1.1 km/h 82% 0.0 mm 0 W/m2
22:58 18.3 °C 15.2 °C 1018.2 hPa Calm     82% 0.0 mm 0 W/m2
23:03 18.3 °C 15.2 °C 1018.2 hPa Calm     82% 0.0 mm 0 W/m2
23:08 18.4 °C 15.3 °C 1018.5 hPa Calm     82% 0.0 mm 0 W/m2
23:13 18.3 °C 15.2 °C 1018.5 hPa Calm     82% 0.0 mm 0 W/m2
23:18 18.4 °C 15.4 °C 1018.5 hPa Calm   2.6 km/h 83% 0.0 mm 0 W/m2
23:23 18.4 °C 15.4 °C 1018.5 hPa Calm   2.6 km/h 83% 0.0 mm 0 W/m2
23:28 18.3 °C 15.4 °C 1018.5 hPa ENE 1.1 km/h 2.6 km/h 83% 0.0 mm 0 W/m2
23:33 18.2 °C 14.9 °C 1018.5 hPa NE 3.5 km/h 6.1 km/h 81% 0.0 mm 0 W/m2
23:38 18.3 °C 14.4 °C 1018.5 hPa NNE 1.1 km/h 6.1 km/h 78% 0.0 mm 0 W/m2
23:43 18.2 °C 14.3 °C 1018.5 hPa Calm   6.1 km/h 78% 0.0 mm 0 W/m2
23:48 18.1 °C 14.2 °C 1018.5 hPa Calm   3.5 km/h 78% 0.0 mm 0 W/m2
23:53 18.0 °C 14.3 °C 1018.5 hPa Calm     79% 0.0 mm 0 W/m2
23:58 17.8 °C 14.3 °C 1018.5 hPa Calm     80% 0.0 mm 0 W/m2
Northern Hawkes Bay. New Zealand Historic Data
Compliments of Weather Underground - 2.25 mb